createdAt,value
2023-05-10T00:00:05.993Z,464.00
2023-05-10T00:01:06.031Z,464.00
2023-05-10T00:02:06.070Z,460.00
2023-05-10T00:03:06.168Z,458.00
2023-05-10T00:04:06.090Z,457.00
2023-05-10T00:05:06.080Z,458.00
2023-05-10T00:06:06.065Z,461.00
2023-05-10T00:07:06.068Z,461.00
2023-05-10T00:08:06.070Z,461.00
2023-05-10T00:09:06.104Z,461.00
2023-05-10T00:10:06.112Z,461.00
2023-05-10T00:11:06.099Z,462.00
2023-05-10T00:12:06.137Z,463.00
2023-05-10T00:13:06.161Z,465.00
2023-05-10T00:14:06.135Z,466.00
2023-05-10T00:15:06.167Z,466.00
2023-05-10T00:16:06.176Z,464.00
2023-05-10T00:17:06.181Z,464.00
2023-05-10T00:18:06.245Z,462.00
2023-05-10T00:19:06.240Z,466.00
2023-05-10T00:20:06.212Z,468.00
2023-05-10T00:21:06.248Z,469.00
2023-05-10T00:22:06.277Z,470.00
2023-05-10T00:23:06.258Z,473.00
2023-05-10T00:24:06.282Z,474.00
2023-05-10T00:25:06.305Z,476.00
2023-05-10T00:26:06.304Z,478.00
2023-05-10T00:27:06.361Z,477.00
2023-05-10T00:28:06.366Z,475.00
2023-05-10T00:29:06.361Z,472.00
2023-05-10T00:30:06.374Z,474.00
2023-05-10T00:31:06.397Z,476.00
2023-05-10T00:32:06.430Z,478.00
2023-05-10T00:33:06.452Z,476.00
2023-05-10T00:34:06.425Z,476.00
2023-05-10T00:35:06.470Z,478.00
2023-05-10T00:36:06.490Z,476.00
2023-05-10T00:37:06.481Z,477.00
2023-05-10T00:38:06.523Z,477.00
2023-05-10T00:39:06.540Z,480.00
2023-05-10T00:40:06.548Z,479.00
2023-05-10T00:41:06.587Z,479.00
2023-05-10T00:42:06.557Z,478.00
2023-05-10T00:43:06.594Z,479.00
2023-05-10T00:44:06.587Z,481.00
2023-05-10T00:45:06.604Z,481.00
2023-05-10T00:46:06.693Z,479.00
2023-05-10T00:47:06.645Z,478.00
2023-05-10T00:48:06.751Z,477.00
2023-05-10T00:49:06.688Z,477.00
2023-05-10T00:50:06.705Z,475.00
2023-05-10T00:51:06.710Z,477.00
2023-05-10T00:52:06.752Z,474.00
2023-05-10T00:53:06.784Z,472.00
2023-05-10T00:54:06.832Z,472.00
2023-05-10T00:55:06.800Z,473.00
2023-05-10T00:56:06.869Z,476.00
2023-05-10T00:57:06.867Z,476.00
2023-05-10T00:58:06.900Z,474.00
2023-05-10T00:59:06.945Z,474.00
2023-05-10T01:00:06.982Z,472.00
2023-05-10T01:01:07.020Z,472.00
2023-05-10T01:02:07.011Z,471.00
2023-05-10T01:03:07.129Z,469.00
2023-05-10T01:04:07.044Z,466.00
2023-05-10T01:05:07.119Z,467.00
2023-05-10T01:06:07.125Z,468.00
2023-05-10T01:07:07.158Z,469.00
2023-05-10T01:08:07.158Z,470.00
2023-05-10T01:09:07.153Z,472.00
2023-05-10T01:10:07.214Z,471.00
2023-05-10T01:11:07.238Z,474.00
2023-05-10T01:12:07.304Z,478.00
2023-05-10T01:13:07.294Z,477.00
2023-05-10T01:14:07.351Z,477.00
2023-05-10T01:15:07.361Z,478.00
2023-05-10T01:16:07.503Z,478.00
2023-05-10T01:17:07.399Z,478.00
2023-05-10T01:18:07.439Z,478.00
2023-05-10T01:19:07.469Z,480.00
2023-05-10T01:20:07.476Z,480.00
2023-05-10T01:21:07.538Z,480.00
2023-05-10T01:22:07.564Z,481.00
2023-05-10T01:23:07.587Z,482.00
2023-05-10T01:24:07.621Z,481.00
2023-05-10T01:25:07.640Z,482.00
2023-05-10T01:26:07.663Z,484.00
2023-05-10T01:27:07.672Z,485.00
2023-05-10T01:28:07.693Z,485.00
2023-05-10T01:29:07.760Z,485.00
2023-05-10T01:30:15.650Z,488.00
2023-05-10T01:31:08.818Z,490.00
2023-05-10T01:32:07.760Z,490.00
2023-05-10T01:33:07.780Z,490.00
2023-05-10T01:34:07.721Z,489.00
2023-05-10T01:35:07.752Z,489.00
2023-05-10T01:36:07.738Z,487.00
2023-05-10T01:37:07.710Z,485.00
2023-05-10T01:38:07.720Z,484.00
2023-05-10T01:39:07.709Z,482.00
2023-05-10T01:40:07.677Z,482.00
2023-05-10T01:41:07.661Z,481.00
2023-05-10T01:42:07.645Z,480.00
2023-05-10T01:43:07.688Z,479.00
2023-05-10T01:44:07.666Z,480.00
2023-05-10T01:45:07.632Z,482.00
2023-05-10T01:46:07.610Z,482.00
2023-05-10T01:47:07.648Z,480.00
2023-05-10T01:48:07.793Z,480.00
2023-05-10T01:49:07.666Z,478.00
2023-05-10T01:50:07.943Z,478.00
2023-05-10T01:51:07.727Z,478.00
2023-05-10T01:52:07.735Z,478.00
2023-05-10T01:53:07.791Z,479.00
2023-05-10T01:54:07.805Z,480.00
2023-05-10T01:55:07.830Z,481.00
2023-05-10T01:56:07.899Z,482.00
2023-05-10T01:57:07.900Z,481.00
2023-05-10T01:58:07.934Z,480.00
2023-05-10T01:59:07.973Z,479.00
2023-05-10T02:00:07.999Z,478.00
2023-05-10T02:01:08.084Z,478.00
2023-05-10T02:02:08.085Z,479.00
2023-05-10T02:03:08.218Z,478.00
2023-05-10T02:04:08.130Z,478.00
2023-05-10T02:05:08.162Z,474.00
2023-05-10T02:06:08.183Z,475.00
2023-05-10T02:07:08.192Z,476.00
2023-05-10T02:08:09.140Z,476.00
2023-05-10T02:09:08.267Z,475.00
2023-05-10T02:10:08.301Z,477.00
2023-05-10T02:11:08.317Z,476.00
2023-05-10T02:12:08.360Z,474.00
2023-05-10T02:13:08.477Z,474.00
2023-05-10T02:14:08.454Z,476.00
2023-05-10T02:15:08.454Z,475.00
2023-05-10T02:16:08.526Z,474.00
2023-05-10T02:17:08.513Z,474.00
2023-05-10T02:18:08.564Z,474.00
2023-05-10T02:19:08.610Z,473.00
2023-05-10T02:20:08.599Z,473.00
2023-05-10T02:21:08.629Z,471.00
2023-05-10T02:22:08.657Z,469.00
2023-05-10T02:23:08.739Z,468.00
2023-05-10T02:24:08.741Z,466.00
2023-05-10T02:25:08.752Z,462.00
2023-05-10T02:26:08.847Z,464.00
2023-05-10T02:27:08.801Z,465.00
2023-05-10T02:28:08.901Z,467.00
2023-05-10T02:29:08.910Z,469.00
2023-05-10T02:30:08.882Z,467.00
2023-05-10T02:31:08.951Z,469.00
2023-05-10T02:32:09.064Z,466.00
2023-05-10T02:33:09.032Z,467.00
2023-05-10T02:34:09.014Z,469.00
2023-05-10T02:35:09.070Z,472.00
2023-05-10T02:36:09.069Z,472.00
2023-05-10T02:37:09.117Z,475.00
2023-05-10T02:38:09.161Z,474.00
2023-05-10T02:39:09.180Z,472.00
2023-05-10T02:40:09.191Z,471.00
2023-05-10T02:41:09.238Z,471.00
2023-05-10T02:42:09.280Z,475.00
2023-05-10T02:43:09.297Z,475.00
2023-05-10T02:44:09.344Z,472.00
2023-05-10T02:45:09.356Z,469.00
2023-05-10T02:46:09.458Z,469.00
2023-05-10T02:47:09.415Z,469.00
2023-05-10T02:48:09.544Z,468.00
2023-05-10T02:49:10.168Z,469.00
2023-05-10T02:50:09.484Z,470.00
2023-05-10T02:51:09.504Z,472.00
2023-05-10T02:52:09.550Z,470.00
2023-05-10T02:53:09.568Z,468.00
2023-05-10T02:54:09.565Z,469.00
2023-05-10T02:55:09.602Z,468.00
2023-05-10T02:56:09.677Z,468.00
2023-05-10T02:57:09.667Z,468.00
2023-05-10T02:58:09.720Z,466.00
2023-05-10T02:59:09.731Z,467.00
2023-05-10T03:00:09.766Z,466.00
2023-05-10T03:01:09.787Z,468.00
2023-05-10T03:02:09.815Z,468.00
2023-05-10T03:03:09.963Z,470.00
2023-05-10T03:04:09.889Z,471.00
2023-05-10T03:05:09.927Z,471.00
2023-05-10T03:06:09.955Z,469.00
2023-05-10T03:07:10.304Z,471.00
2023-05-10T03:08:10.022Z,469.00
2023-05-10T03:09:10.033Z,473.00
2023-05-10T03:10:10.078Z,473.00
2023-05-10T03:11:10.108Z,471.00
2023-05-10T03:12:10.156Z,470.00
2023-05-10T03:13:10.211Z,466.00
2023-05-10T03:14:10.193Z,462.00
2023-05-10T03:15:10.209Z,462.00
2023-05-10T03:16:10.401Z,460.00
2023-05-10T03:17:10.320Z,462.00
2023-05-10T03:18:10.374Z,463.00
2023-05-10T03:19:10.352Z,464.00
2023-05-10T03:20:10.412Z,466.00
2023-05-10T03:21:10.449Z,464.00
2023-05-10T03:22:10.498Z,462.00
2023-05-10T03:23:10.520Z,462.00
2023-05-10T03:24:10.527Z,463.00
2023-05-10T03:25:10.609Z,464.00
2023-05-10T03:26:10.608Z,466.00
2023-05-10T03:27:10.668Z,468.00
2023-05-10T03:28:10.665Z,469.00
2023-05-10T03:29:10.700Z,470.00
2023-05-10T03:30:10.732Z,469.00
2023-05-10T03:31:10.853Z,469.00
2023-05-10T03:32:10.795Z,468.00
2023-05-10T03:33:10.827Z,466.00
2023-05-10T03:34:10.877Z,467.00
2023-05-10T03:35:10.977Z,468.00
2023-05-10T03:36:10.936Z,465.00
2023-05-10T03:37:10.989Z,465.00
2023-05-10T03:38:11.025Z,466.00
2023-05-10T03:39:11.064Z,464.00
2023-05-10T03:40:11.073Z,466.00
2023-05-10T03:41:12.069Z,468.00
2023-05-10T03:42:11.160Z,470.00
2023-05-10T03:43:11.199Z,471.00
2023-05-10T03:44:11.168Z,472.00
2023-05-10T03:45:11.206Z,471.00
2023-05-10T03:46:11.278Z,472.00
2023-05-10T03:47:11.265Z,472.00
2023-05-10T03:48:11.328Z,471.00
2023-05-10T03:49:11.335Z,471.00
2023-05-10T03:50:11.386Z,469.00
2023-05-10T03:51:11.451Z,471.00
2023-05-10T03:52:11.437Z,473.00
2023-05-10T03:53:11.472Z,474.00
2023-05-10T03:54:11.483Z,470.00
2023-05-10T03:55:11.523Z,468.00
2023-05-10T03:56:11.530Z,469.00
2023-05-10T03:57:11.565Z,468.00
2023-05-10T03:58:11.647Z,469.00
2023-05-10T03:59:11.656Z,469.00
2023-05-10T04:00:11.700Z,473.00
2023-05-10T04:01:11.712Z,471.00
2023-05-10T04:02:11.735Z,465.00
2023-05-10T04:03:11.842Z,465.00
2023-05-10T04:04:11.825Z,467.00
2023-05-10T04:05:11.788Z,468.00
2023-05-10T04:06:11.843Z,471.00
2023-05-10T04:07:11.855Z,470.00
2023-05-10T04:08:11.921Z,467.00
2023-05-10T04:09:11.877Z,465.00
2023-05-10T04:10:11.959Z,467.00
2023-05-10T04:11:12.030Z,467.00
2023-05-10T04:12:12.005Z,467.00
2023-05-10T04:13:12.027Z,468.00
2023-05-10T04:14:12.010Z,468.00
2023-05-10T04:15:12.076Z,469.00
2023-05-10T04:16:12.079Z,470.00
2023-05-10T04:17:12.184Z,469.00
2023-05-10T04:18:12.163Z,469.00
2023-05-10T04:19:12.198Z,466.00
2023-05-10T04:20:12.215Z,467.00
2023-05-10T04:21:12.215Z,469.00
2023-05-10T04:22:12.263Z,469.00
2023-05-10T04:23:12.287Z,470.00
2023-05-10T04:24:13.472Z,470.00
2023-05-10T04:25:12.357Z,473.00
2023-05-10T04:26:12.377Z,474.00
2023-05-10T04:27:12.386Z,473.00
2023-05-10T04:28:12.468Z,474.00
2023-05-10T04:29:12.479Z,474.00
2023-05-10T04:30:12.535Z,474.00
2023-05-10T04:31:12.669Z,472.00
2023-05-10T04:32:12.533Z,472.00
2023-05-10T04:33:12.594Z,472.00
2023-05-10T04:34:12.641Z,471.00
2023-05-10T04:35:12.639Z,469.00
2023-05-10T04:36:12.671Z,468.00
2023-05-10T04:37:12.694Z,466.00
2023-05-10T04:38:12.767Z,465.00
2023-05-10T04:39:12.803Z,467.00
2023-05-10T04:40:12.851Z,465.00
2023-05-10T04:41:12.847Z,467.00
2023-05-10T04:42:12.926Z,470.00
2023-05-10T04:43:12.918Z,471.00
2023-05-10T04:44:12.967Z,471.00
2023-05-10T04:45:12.993Z,472.00
2023-05-10T04:46:13.069Z,474.00
2023-05-10T04:47:13.074Z,473.00
2023-05-10T04:48:13.116Z,473.00
2023-05-10T04:49:13.160Z,476.00
2023-05-10T04:50:13.167Z,476.00
2023-05-10T04:51:13.218Z,473.00
2023-05-10T04:52:13.268Z,472.00
2023-05-10T04:53:15.268Z,472.00
2023-05-10T04:54:13.459Z,471.00
2023-05-10T04:55:13.480Z,474.00
2023-05-10T04:56:13.603Z,471.00
2023-05-10T04:57:13.626Z,472.00
2023-05-10T04:58:13.667Z,474.00
2023-05-10T04:59:13.717Z,472.00
2023-05-10T05:01:40.346Z,466.00
2023-05-10T05:02:32.742Z,466.00
2023-05-10T05:03:32.722Z,468.00
2023-05-10T05:04:32.632Z,466.00
2023-05-10T05:05:32.606Z,465.00
2023-05-10T05:06:32.605Z,468.00
2023-05-10T05:07:32.606Z,466.00
2023-05-10T05:08:32.584Z,469.00
2023-05-10T05:09:32.553Z,469.00
2023-05-10T05:10:32.568Z,471.00
2023-05-10T05:11:32.572Z,471.00
2023-05-10T05:12:32.584Z,470.00
2023-05-10T05:13:32.586Z,469.00
2023-05-10T05:14:32.652Z,469.00
2023-05-10T05:15:32.660Z,466.00
2023-05-10T05:16:32.685Z,464.00
2023-05-10T05:17:32.683Z,464.00
2023-05-10T05:18:32.678Z,460.00
2023-05-10T05:19:32.648Z,465.00
2023-05-10T05:20:32.679Z,463.00
2023-05-10T05:21:32.742Z,465.00
2023-05-10T05:22:32.744Z,456.00
2023-05-10T05:23:32.763Z,459.00
2023-05-10T05:24:32.769Z,458.00
2023-05-10T05:25:32.796Z,461.00
2023-05-10T05:26:32.776Z,463.00
2023-05-10T05:27:32.787Z,462.00
2023-05-10T05:28:32.784Z,462.00
2023-05-10T05:29:32.753Z,461.00
2023-05-10T05:30:32.819Z,457.00
2023-05-10T05:31:32.845Z,509.00
2023-05-10T05:32:32.872Z,498.00
2023-05-10T05:33:32.856Z,510.00
2023-05-10T05:34:32.839Z,495.00
2023-05-10T05:35:32.801Z,495.00
2023-05-10T05:36:32.808Z,492.00
2023-05-10T05:37:32.860Z,492.00
2023-05-10T05:38:33.364Z,500.00
2023-05-10T05:39:32.878Z,497.00
2023-05-10T05:40:32.927Z,497.00
2023-05-10T05:41:32.988Z,502.00
2023-05-10T05:42:33.057Z,490.00
2023-05-10T05:43:33.468Z,487.00
2023-05-10T05:44:33.128Z,484.00
2023-05-10T05:45:33.151Z,476.00
2023-05-10T05:46:40.919Z,473.00
2023-05-10T05:47:33.250Z,468.00
2023-05-10T05:48:33.449Z,466.00
2023-05-10T05:49:33.182Z,465.00
2023-05-10T05:50:33.194Z,468.00
2023-05-10T05:51:33.177Z,468.00
2023-05-10T05:52:33.185Z,460.00
2023-05-10T05:53:33.126Z,457.00
2023-05-10T05:54:33.388Z,455.00
2023-05-10T05:55:33.116Z,455.00
2023-05-10T05:56:33.121Z,455.00
2023-05-10T05:57:33.316Z,455.00
2023-05-10T05:58:33.429Z,452.00
2023-05-10T05:59:33.407Z,450.00
2023-05-10T06:00:33.118Z,464.00
2023-05-10T06:01:33.150Z,461.00
2023-05-10T06:02:33.187Z,458.00
2023-05-10T06:03:33.162Z,454.00
2023-05-10T06:04:33.469Z,455.00
2023-05-10T06:05:33.118Z,453.00
2023-05-10T06:06:33.157Z,452.00
2023-05-10T06:07:33.241Z,451.00
2023-05-10T06:08:33.205Z,452.00
2023-05-10T06:09:33.206Z,453.00
2023-05-10T06:10:33.194Z,456.00
2023-05-10T06:11:33.275Z,454.00
2023-05-10T06:12:33.286Z,453.00
2023-05-10T06:13:33.712Z,454.00
2023-05-10T06:14:33.884Z,456.00
2023-05-10T06:15:33.462Z,455.00
2023-05-10T06:16:33.558Z,455.00
2023-05-10T06:17:33.650Z,454.00
2023-05-10T06:18:33.648Z,456.00
2023-05-10T06:19:34.409Z,454.00
2023-05-10T06:20:33.766Z,454.00
2023-05-10T06:21:33.839Z,455.00
2023-05-10T06:22:33.872Z,454.00
2023-05-10T06:23:33.968Z,456.00
2023-05-10T06:24:34.017Z,455.00
2023-05-10T06:25:34.026Z,452.00
2023-05-10T06:26:34.148Z,454.00
2023-05-10T06:27:34.297Z,452.00
2023-05-10T06:28:34.238Z,455.00
2023-05-10T06:29:34.340Z,457.00
2023-05-10T06:30:34.377Z,459.00
2023-05-10T06:31:34.434Z,458.00
2023-05-10T06:32:34.509Z,456.00
2023-05-10T06:33:34.569Z,454.00
2023-05-10T06:34:34.628Z,450.00
2023-05-10T06:35:34.628Z,454.00
2023-05-10T06:36:34.645Z,455.00
2023-05-10T06:37:34.640Z,460.00
2023-05-10T06:38:34.722Z,463.00
2023-05-10T06:39:34.834Z,619.00
2023-05-10T06:40:34.875Z,493.00
2023-05-10T06:41:34.889Z,492.00
2023-05-10T06:42:34.978Z,490.00
2023-05-10T06:43:34.979Z,483.00
2023-05-10T06:44:35.387Z,478.00
2023-05-10T06:45:35.022Z,470.00
2023-05-10T06:47:54.045Z,475.00
2023-05-10T06:48:53.981Z,482.00
2023-05-10T06:49:53.942Z,477.00
2023-05-10T06:50:53.952Z,479.00
2023-05-10T06:51:53.902Z,487.00
2023-05-10T06:52:53.922Z,485.00
2023-05-10T06:53:53.904Z,477.00
2023-05-10T06:54:53.911Z,470.00
2023-05-10T06:55:53.861Z,467.00
2023-05-10T06:56:53.894Z,465.00
2023-05-10T06:57:53.890Z,463.00
2023-05-10T06:58:53.902Z,463.00
2023-05-10T06:59:53.844Z,466.00
2023-05-10T07:00:53.981Z,465.00
2023-05-10T07:01:53.889Z,461.00
2023-05-10T07:02:53.874Z,458.00
2023-05-10T07:03:53.826Z,459.00
2023-05-10T07:04:53.881Z,457.00
2023-05-10T07:05:53.805Z,458.00
2023-05-10T07:06:53.799Z,460.00
2023-05-10T07:07:53.849Z,458.00
2023-05-10T07:08:53.803Z,458.00
2023-05-10T07:09:54.171Z,459.00
2023-05-10T07:10:53.784Z,460.00
2023-05-10T07:11:53.753Z,459.00
2023-05-10T07:12:53.851Z,458.00
2023-05-10T07:13:53.729Z,459.00
2023-05-10T07:14:53.769Z,459.00
2023-05-10T07:15:53.789Z,513.00
2023-05-10T07:16:53.751Z,521.00
2023-05-10T07:17:53.813Z,593.00
2023-05-10T07:18:53.726Z,618.00
2023-05-10T07:19:53.735Z,635.00
2023-05-10T07:20:53.799Z,641.00
2023-05-10T07:21:53.681Z,646.00
2023-05-10T07:22:53.704Z,650.00
2023-05-10T07:23:53.696Z,523.00
2023-05-10T07:24:53.712Z,597.00
2023-05-10T07:25:53.713Z,604.00
2023-05-10T07:26:53.680Z,644.00
2023-05-10T07:27:53.628Z,644.00
2023-05-10T07:28:53.655Z,647.00
2023-05-10T07:29:53.705Z,647.00
2023-05-10T07:30:53.665Z,648.00
2023-05-10T07:31:54.481Z,646.00
2023-05-10T07:32:53.808Z,738.00
2023-05-10T07:33:53.820Z,773.00
2023-05-10T07:34:53.874Z,778.00
2023-05-10T07:35:53.893Z,959.00
2023-05-10T07:36:53.965Z,668.00
2023-05-10T07:37:54.000Z,658.00
2023-05-10T07:38:54.034Z,569.00
2023-05-10T07:39:54.121Z,917.00
2023-05-10T07:40:54.117Z,783.00
2023-05-10T07:41:54.155Z,776.00
2023-05-10T07:42:54.208Z,768.00
2023-05-10T07:43:54.249Z,765.00
2023-05-10T07:44:54.339Z,779.00
2023-05-10T07:45:56.105Z,775.00
2023-05-10T07:46:54.362Z,762.00
2023-05-10T07:47:54.464Z,667.00
2023-05-10T07:48:54.484Z,671.00
2023-05-10T07:49:54.557Z,720.00
2023-05-10T07:50:54.570Z,885.00
2023-05-10T07:51:54.600Z,910.00
2023-05-10T07:52:54.599Z,772.00
2023-05-10T07:53:54.669Z,700.00
2023-05-10T07:54:54.721Z,669.00
2023-05-10T07:55:54.801Z,646.00
2023-05-10T07:56:54.808Z,646.00
2023-05-10T07:57:54.832Z,598.00
2023-05-10T07:58:54.882Z,573.00
2023-05-10T07:59:54.955Z,560.00
2023-05-10T08:00:54.998Z,566.00
2023-05-10T08:01:55.077Z,564.00
2023-05-10T08:02:55.129Z,564.00
2023-05-10T08:03:55.273Z,563.00
2023-05-10T08:04:55.195Z,559.00
2023-05-10T08:05:55.223Z,561.00
2023-05-10T08:06:55.289Z,567.00
2023-05-10T08:07:55.300Z,570.00
2023-05-10T08:08:55.338Z,573.00
2023-05-10T08:09:55.450Z,574.00
2023-05-10T08:10:55.635Z,577.00
2023-05-10T08:11:55.468Z,578.00
2023-05-10T08:12:55.567Z,579.00
2023-05-10T08:13:55.575Z,578.00
2023-05-10T08:14:55.600Z,578.00
2023-05-10T08:15:56.528Z,577.00
2023-05-10T08:16:55.723Z,577.00
2023-05-10T08:17:55.782Z,586.00
2023-05-10T08:18:55.848Z,677.00
2023-05-10T08:19:55.870Z,675.00
2023-05-10T08:20:55.927Z,654.00
2023-05-10T08:21:55.924Z,633.00
2023-05-10T08:22:55.943Z,630.00
2023-05-10T08:23:56.014Z,622.00
2023-05-10T08:24:56.054Z,588.00
2023-05-10T08:25:56.160Z,553.00
2023-05-10T08:26:56.154Z,550.00
2023-05-10T08:27:56.289Z,550.00
2023-05-10T08:28:56.293Z,551.00
2023-05-10T08:29:56.320Z,554.00
2023-05-10T08:30:56.715Z,556.00
2023-05-10T08:31:56.311Z,556.00
2023-05-10T08:32:56.315Z,560.00
2023-05-10T08:33:56.290Z,548.00
2023-05-10T08:34:56.302Z,541.00
2023-05-10T08:35:56.664Z,542.00
2023-05-10T08:36:56.323Z,543.00
2023-05-10T08:37:56.321Z,548.00
2023-05-10T08:38:56.309Z,548.00
2023-05-10T08:39:56.323Z,555.00
2023-05-10T08:40:56.346Z,561.00
2023-05-10T08:41:56.352Z,562.00
2023-05-10T08:42:56.348Z,597.00
2023-05-10T08:43:56.367Z,605.00
2023-05-10T08:44:56.315Z,606.00
2023-05-10T08:45:56.685Z,604.00
2023-05-10T08:46:56.325Z,625.00
2023-05-10T08:47:56.328Z,624.00
2023-05-10T08:48:56.318Z,627.00
2023-05-10T08:49:56.299Z,634.00
2023-05-10T08:50:56.713Z,640.00
2023-05-10T08:51:56.381Z,644.00
2023-05-10T08:52:56.263Z,650.00
2023-05-10T08:53:56.274Z,654.00
2023-05-10T08:54:56.321Z,566.00
2023-05-10T08:55:56.387Z,557.00
2023-05-10T08:56:56.493Z,553.00
2023-05-10T08:57:56.504Z,546.00
2023-05-10T08:58:56.567Z,552.00
2023-05-10T08:59:56.608Z,641.00
2023-05-10T09:00:57.210Z,635.00
2023-05-10T09:01:56.707Z,558.00
2023-05-10T09:02:56.779Z,552.00
2023-05-10T09:03:56.854Z,549.00
2023-05-10T09:04:56.970Z,548.00
2023-05-10T09:05:57.176Z,547.00
2023-05-10T09:06:56.952Z,545.00
2023-05-10T09:07:56.958Z,544.00
2023-05-10T09:08:57.036Z,543.00
2023-05-10T09:09:57.094Z,541.00
2023-05-10T09:10:57.164Z,538.00
2023-05-10T09:11:57.204Z,534.00
2023-05-10T09:12:59.214Z,533.00
2023-05-10T09:13:57.302Z,532.00
2023-05-10T09:14:57.325Z,532.00
2023-05-10T09:16:00.276Z,532.00
2023-05-10T09:16:57.438Z,542.00
2023-05-10T09:17:57.406Z,562.00
2023-05-10T09:18:57.425Z,558.00
2023-05-10T09:19:57.322Z,549.00
2023-05-10T09:20:57.356Z,546.00
2023-05-10T09:21:57.346Z,541.00
2023-05-10T09:22:57.331Z,539.00
2023-05-10T09:23:57.299Z,540.00
2023-05-10T09:24:57.306Z,542.00
2023-05-10T09:25:57.719Z,539.00
2023-05-10T09:26:57.257Z,541.00
2023-05-10T09:27:57.267Z,541.00
2023-05-10T09:28:57.305Z,542.00
2023-05-10T09:29:58.387Z,552.00
2023-05-10T09:30:57.719Z,565.00
2023-05-10T09:31:57.457Z,573.00
2023-05-10T09:32:57.512Z,574.00
2023-05-10T09:33:57.526Z,592.00
2023-05-10T09:34:57.569Z,601.00
2023-05-10T09:35:57.714Z,599.00
2023-05-10T09:36:57.651Z,599.00
2023-05-10T09:37:58.658Z,615.00
2023-05-10T09:38:57.715Z,607.00
2023-05-10T09:39:57.773Z,589.00
2023-05-10T09:40:58.234Z,581.00
2023-05-10T09:41:57.808Z,591.00
2023-05-10T09:42:58.308Z,587.00
2023-05-10T09:43:57.843Z,594.00
2023-05-10T09:44:57.864Z,589.00
2023-05-10T09:45:58.266Z,569.00
2023-05-10T09:46:57.955Z,556.00
2023-05-10T09:47:58.054Z,556.00
2023-05-10T09:48:58.037Z,556.00
2023-05-10T09:49:58.065Z,556.00
2023-05-10T09:50:58.718Z,557.00
2023-05-10T09:51:58.152Z,620.00
2023-05-10T09:52:58.203Z,609.00
2023-05-10T09:53:58.279Z,570.00
2023-05-10T09:54:58.268Z,552.00
2023-05-10T09:55:58.331Z,559.00
2023-05-10T09:56:58.333Z,553.00
2023-05-10T09:57:58.360Z,550.00
2023-05-10T09:58:58.432Z,546.00
2023-05-10T09:59:58.480Z,547.00
2023-05-10T10:00:58.692Z,548.00
2023-05-10T10:01:58.596Z,547.00
2023-05-10T10:02:58.667Z,547.00
2023-05-10T10:03:58.646Z,545.00
2023-05-10T10:04:58.694Z,543.00
2023-05-10T10:05:58.713Z,540.00
2023-05-10T10:06:58.730Z,541.00
2023-05-10T10:07:58.809Z,538.00
2023-05-10T10:08:58.839Z,533.00
2023-05-10T10:09:58.901Z,533.00
2023-05-10T10:10:59.217Z,536.00
2023-05-10T10:11:58.977Z,534.00
2023-05-10T10:12:58.974Z,531.00
2023-05-10T10:13:58.999Z,529.00
2023-05-10T10:14:59.053Z,532.00
2023-05-10T10:15:59.081Z,529.00
2023-05-10T10:17:08.101Z,535.00
2023-05-10T10:18:00.198Z,535.00
2023-05-10T10:18:59.198Z,532.00
2023-05-10T10:19:59.117Z,527.00
2023-05-10T10:20:59.117Z,513.00
2023-05-10T10:21:59.196Z,500.00
2023-05-10T10:22:59.134Z,498.00
2023-05-10T10:23:59.040Z,503.00
2023-05-10T10:24:59.068Z,497.00
2023-05-10T10:25:59.058Z,492.00
2023-05-10T10:26:59.230Z,481.00
2023-05-10T10:27:59.034Z,482.00
2023-05-10T10:28:59.055Z,481.00
2023-05-10T10:29:59.053Z,485.00
2023-05-10T10:30:59.011Z,484.00
2023-05-10T10:31:59.230Z,484.00
2023-05-10T10:32:59.062Z,481.00
2023-05-10T10:33:59.062Z,478.00
2023-05-10T10:34:58.997Z,486.00
2023-05-10T10:35:59.024Z,487.00
2023-05-10T10:36:59.196Z,488.00
2023-05-10T10:37:59.003Z,570.00
2023-05-10T10:38:59.306Z,566.00
2023-05-10T10:39:58.932Z,558.00
2023-05-10T10:40:58.980Z,649.00
2023-05-10T10:41:59.241Z,627.00
2023-05-10T10:42:58.994Z,555.00
2023-05-10T10:43:58.989Z,507.00
2023-05-10T10:44:59.447Z,511.00
2023-05-10T10:45:59.077Z,492.00
2023-05-10T10:46:59.236Z,491.00
2023-05-10T10:47:59.162Z,486.00
2023-05-10T10:48:59.184Z,476.00
2023-05-10T10:49:59.242Z,472.00
2023-05-10T10:50:59.252Z,469.00
2023-05-10T10:51:59.415Z,461.00
2023-05-10T10:52:59.367Z,461.00
2023-05-10T10:53:59.387Z,458.00
2023-05-10T10:54:59.313Z,456.00
2023-05-10T10:55:59.447Z,456.00
2023-05-10T10:56:59.746Z,458.00
2023-05-10T10:57:59.453Z,457.00
2023-05-10T10:58:59.494Z,454.00
2023-05-10T10:59:59.583Z,454.00
2023-05-10T11:00:59.566Z,456.00
2023-05-10T11:01:59.605Z,453.00
2023-05-10T11:02:59.632Z,451.00
2023-05-10T11:03:59.746Z,453.00
2023-05-10T11:04:59.722Z,452.00
2023-05-10T11:05:59.720Z,454.00
2023-05-10T11:06:59.718Z,457.00
2023-05-10T11:07:59.743Z,459.00
2023-05-10T11:08:59.731Z,460.00
2023-05-10T11:09:59.739Z,454.00
2023-05-10T11:10:59.774Z,450.00
2023-05-10T11:11:59.759Z,453.00
2023-05-10T11:12:59.751Z,452.00
2023-05-10T11:14:00.145Z,455.00
2023-05-10T11:14:59.805Z,452.00
2023-05-10T11:15:59.783Z,450.00
2023-05-10T11:16:59.843Z,453.00
2023-05-10T11:17:59.965Z,450.00
2023-05-10T11:19:00.058Z,450.00
2023-05-10T11:19:59.994Z,452.00
2023-05-10T11:21:00.030Z,456.00
2023-05-10T11:22:00.387Z,458.00
2023-05-10T11:23:00.621Z,459.00
2023-05-10T11:24:00.055Z,457.00
2023-05-10T11:25:00.088Z,453.00
2023-05-10T11:26:00.137Z,460.00
2023-05-10T11:27:00.109Z,495.00
2023-05-10T11:28:00.312Z,486.00
2023-05-10T11:29:00.233Z,577.00
2023-05-10T11:30:00.277Z,505.00
2023-05-10T11:31:00.348Z,632.00
2023-05-10T11:32:00.290Z,542.00
2023-05-10T11:33:00.813Z,550.00
2023-05-10T11:34:00.328Z,552.00
2023-05-10T11:35:00.331Z,541.00
2023-05-10T11:36:00.415Z,545.00
2023-05-10T11:37:00.437Z,528.00
2023-05-10T11:38:00.734Z,526.00
2023-05-10T11:39:00.564Z,501.00
2023-05-10T11:40:00.883Z,489.00
2023-05-10T11:41:00.663Z,491.00
2023-05-10T11:42:00.702Z,493.00
2023-05-10T11:43:00.776Z,494.00
2023-05-10T11:44:00.754Z,482.00
2023-05-10T11:45:00.807Z,474.00
2023-05-10T11:46:00.878Z,469.00
2023-05-10T11:47:00.915Z,465.00
2023-05-10T11:48:00.991Z,461.00
2023-05-10T11:49:00.976Z,457.00
2023-05-10T11:50:01.064Z,454.00
2023-05-10T11:51:00.990Z,454.00
2023-05-10T11:52:00.956Z,442.00
2023-05-10T11:53:01.051Z,447.00
2023-05-10T11:54:00.997Z,452.00
2023-05-10T11:55:01.029Z,452.00
2023-05-10T11:56:01.062Z,449.00
2023-05-10T11:57:01.004Z,450.00
2023-05-10T11:58:01.072Z,453.00
2023-05-10T11:59:01.049Z,450.00
2023-05-10T12:00:01.076Z,448.00
2023-05-10T12:01:01.110Z,448.00
2023-05-10T12:02:01.159Z,450.00
2023-05-10T12:03:01.304Z,449.00
2023-05-10T12:04:01.614Z,446.00
2023-05-10T12:05:01.437Z,447.00
2023-05-10T12:06:01.258Z,446.00
2023-05-10T12:07:01.316Z,449.00
2023-05-10T12:08:01.295Z,454.00
2023-05-10T12:09:01.334Z,463.00
2023-05-10T12:10:01.303Z,474.00
2023-05-10T12:11:01.407Z,477.00
2023-05-10T12:12:01.451Z,480.00
2023-05-10T12:13:01.494Z,483.00
2023-05-10T12:14:01.551Z,488.00
2023-05-10T12:15:01.571Z,493.00
2023-05-10T12:16:01.569Z,499.00
2023-05-10T12:17:01.650Z,506.00
2023-05-10T12:18:01.656Z,511.00
2023-05-10T12:19:01.779Z,512.00
2023-05-10T12:20:01.655Z,512.00
2023-05-10T12:21:01.689Z,514.00
2023-05-10T12:22:01.656Z,521.00
2023-05-10T12:23:01.660Z,527.00
2023-05-10T12:24:01.664Z,532.00
2023-05-10T12:25:01.665Z,525.00
2023-05-10T12:26:01.624Z,518.00
2023-05-10T12:27:01.691Z,535.00
2023-05-10T12:28:01.717Z,543.00
2023-05-10T12:29:01.690Z,555.00
2023-05-10T12:30:02.075Z,568.00
2023-05-10T12:31:01.723Z,551.00